sensor_id;sensor_type;location;lat;lon;timestamp;P1;durP1;ratioP1;P2;durP2;ratioP2
42866;SDS011;39461;40.948;73.006;2023-05-13T00:01:34;8.95;;;5.00;;
42866;SDS011;39461;40.948;73.006;2023-05-13T00:04:09;10.95;;;5.40;;
42866;SDS011;39461;40.948;73.006;2023-05-13T00:06:44;11.48;;;4.88;;
42866;SDS011;39461;40.948;73.006;2023-05-13T00:09:19;11.35;;;5.07;;
42866;SDS011;39461;40.948;73.006;2023-05-13T00:11:54;10.07;;;5.13;;
42866;SDS011;39461;40.948;73.006;2023-05-13T00:14:29;9.50;;;5.20;;
42866;SDS011;39461;40.948;73.006;2023-05-13T00:17:02;11.90;;;5.68;;
42866;SDS011;39461;40.948;73.006;2023-05-13T00:19:37;10.32;;;5.43;;
42866;SDS011;39461;40.948;73.006;2023-05-13T00:22:21;10.60;;;5.53;;
42866;SDS011;39461;40.948;73.006;2023-05-13T00:24:54;11.35;;;5.13;;
42866;SDS011;39461;40.948;73.006;2023-05-13T00:27:27;13.75;;;5.90;;
42866;SDS011;39461;40.948;73.006;2023-05-13T00:30:00;11.55;;;5.57;;
42866;SDS011;39461;40.948;73.006;2023-05-13T00:32:33;18.20;;;6.03;;
42866;SDS011;39461;40.948;73.006;2023-05-13T00:35:07;9.70;;;5.53;;
42866;SDS011;39461;40.948;73.006;2023-05-13T00:37:41;8.70;;;5.32;;
42866;SDS011;39461;40.948;73.006;2023-05-13T00:40:20;12.93;;;5.10;;
42866;SDS011;39461;40.948;73.006;2023-05-13T00:42:50;9.30;;;5.32;;
42866;SDS011;39461;40.948;73.006;2023-05-13T00:45:25;9.73;;;5.20;;
42866;SDS011;39461;40.948;73.006;2023-05-13T00:48:00;12.00;;;5.93;;
42866;SDS011;39461;40.948;73.006;2023-05-13T00:50:35;10.35;;;5.57;;
42866;SDS011;39461;40.948;73.006;2023-05-13T00:53:11;8.88;;;6.10;;
42866;SDS011;39461;40.948;73.006;2023-05-13T00:55:46;15.77;;;6.30;;
42866;SDS011;39461;40.948;73.006;2023-05-13T00:58:23;13.95;;;7.70;;
42866;SDS011;39461;40.948;73.006;2023-05-13T01:06:32;11.73;;;5.43;;
42866;SDS011;39461;40.948;73.006;2023-05-13T01:11:42;11.45;;;6.28;;
42866;SDS011;39461;40.948;73.006;2023-05-13T01:14:21;10.65;;;5.63;;
42866;SDS011;39461;40.948;73.006;2023-05-13T01:16:54;13.55;;;6.20;;
42866;SDS011;39461;40.948;73.006;2023-05-13T01:19:37;16.50;;;6.43;;
42866;SDS011;39461;40.948;73.006;2023-05-13T01:25:11;12.85;;;6.97;;
42866;SDS011;39461;40.948;73.006;2023-05-13T01:27:40;8.68;;;6.35;;
42866;SDS011;39461;40.948;73.006;2023-05-13T01:30:13;10.20;;;6.28;;
42866;SDS011;39461;40.948;73.006;2023-05-13T01:32:49;15.07;;;7.40;;
42866;SDS011;39461;40.948;73.006;2023-05-13T01:35:24;11.00;;;5.80;;
42866;SDS011;39461;40.948;73.006;2023-05-13T01:37:59;8.40;;;5.20;;
42866;SDS011;39461;40.948;73.006;2023-05-13T01:40:34;10.75;;;5.03;;
42866;SDS011;39461;40.948;73.006;2023-05-13T01:43:07;9.52;;;5.22;;
42866;SDS011;39461;40.948;73.006;2023-05-13T01:45:42;9.75;;;5.38;;
42866;SDS011;39461;40.948;73.006;2023-05-13T01:48:17;12.23;;;6.20;;
42866;SDS011;39461;40.948;73.006;2023-05-13T01:50:52;15.70;;;6.80;;
42866;SDS011;39461;40.948;73.006;2023-05-13T01:56:24;11.40;;;5.72;;
42866;SDS011;39461;40.948;73.006;2023-05-13T01:58:53;13.55;;;5.63;;
42866;SDS011;39461;40.948;73.006;2023-05-13T02:01:29;8.93;;;5.03;;
42866;SDS011;39461;40.948;73.006;2023-05-13T02:04:04;9.88;;;5.10;;
42866;SDS011;39461;40.948;73.006;2023-05-13T02:06:39;9.65;;;5.10;;
42866;SDS011;39461;40.948;73.006;2023-05-13T02:09:14;13.40;;;5.47;;
42866;SDS011;39461;40.948;73.006;2023-05-13T02:11:49;10.77;;;4.72;;
42866;SDS011;39461;40.948;73.006;2023-05-13T02:14:24;8.70;;;5.03;;
42866;SDS011;39461;40.948;73.006;2023-05-13T02:16:59;6.57;;;4.60;;
42866;SDS011;39461;40.948;73.006;2023-05-13T02:19:34;7.18;;;4.53;;
42866;SDS011;39461;40.948;73.006;2023-05-13T02:22:09;8.40;;;4.90;;
42866;SDS011;39461;40.948;73.006;2023-05-13T02:24:46;14.43;;;5.05;;
42866;SDS011;39461;40.948;73.006;2023-05-13T02:27:19;8.68;;;4.60;;
42866;SDS011;39461;40.948;73.006;2023-05-13T02:29:54;8.25;;;4.43;;
42866;SDS011;39461;40.948;73.006;2023-05-13T02:32:31;14.82;;;4.53;;
42866;SDS011;39461;40.948;73.006;2023-05-13T02:38:03;9.32;;;4.47;;
42866;SDS011;39461;40.948;73.006;2023-05-13T02:40:36;11.27;;;4.00;;
42866;SDS011;39461;40.948;73.006;2023-05-13T02:43:05;7.05;;;3.72;;
42866;SDS011;39461;40.948;73.006;2023-05-13T02:45:40;6.95;;;3.92;;
42866;SDS011;39461;40.948;73.006;2023-05-13T02:48:15;6.43;;;3.35;;
42866;SDS011;39461;40.948;73.006;2023-05-13T02:50:49;6.97;;;3.85;;
42866;SDS011;39461;40.948;73.006;2023-05-13T02:53:24;11.15;;;3.88;;
42866;SDS011;39461;40.948;73.006;2023-05-13T02:55:57;9.82;;;4.00;;
42866;SDS011;39461;40.948;73.006;2023-05-13T02:58:33;12.38;;;3.85;;
42866;SDS011;39461;40.948;73.006;2023-05-13T03:01:07;7.40;;;3.55;;
42866;SDS011;39461;40.948;73.006;2023-05-13T03:03:42;8.20;;;3.33;;
42866;SDS011;39461;40.948;73.006;2023-05-13T03:06:15;9.75;;;3.60;;
42866;SDS011;39461;40.948;73.006;2023-05-13T03:08:50;6.18;;;2.90;;
42866;SDS011;39461;40.948;73.006;2023-05-13T03:11:26;7.65;;;2.90;;
42866;SDS011;39461;40.948;73.006;2023-05-13T03:14:01;9.02;;;5.63;;
42866;SDS011;39461;40.948;73.006;2023-05-13T03:16:36;10.85;;;6.97;;
42866;SDS011;39461;40.948;73.006;2023-05-13T03:19:11;25.50;;;15.50;;
42866;SDS011;39461;40.948;73.006;2023-05-13T03:21:44;22.77;;;14.32;;
42866;SDS011;39461;40.948;73.006;2023-05-13T03:24:17;11.00;;;3.63;;
42866;SDS011;39461;40.948;73.006;2023-05-13T03:26:52;7.10;;;2.97;;
42866;SDS011;39461;40.948;73.006;2023-05-13T03:29:27;7.97;;;3.08;;
42866;SDS011;39461;40.948;73.006;2023-05-13T03:32:00;7.63;;;3.20;;
42866;SDS011;39461;40.948;73.006;2023-05-13T03:34:33;5.50;;;3.22;;
42866;SDS011;39461;40.948;73.006;2023-05-13T03:37:08;5.22;;;2.65;;
42866;SDS011;39461;40.948;73.006;2023-05-13T03:39:44;9.65;;;3.35;;
42866;SDS011;39461;40.948;73.006;2023-05-13T03:42:17;5.97;;;2.85;;
42866;SDS011;39461;40.948;73.006;2023-05-13T03:44:53;6.95;;;3.08;;
42866;SDS011;39461;40.948;73.006;2023-05-13T03:50:27;9.85;;;3.40;;
42866;SDS011;39461;40.948;73.006;2023-05-13T03:53:02;7.55;;;2.53;;
42866;SDS011;39461;40.948;73.006;2023-05-13T03:55:38;9.20;;;2.63;;
42866;SDS011;39461;40.948;73.006;2023-05-13T03:58:12;7.28;;;2.40;;
42866;SDS011;39461;40.948;73.006;2023-05-13T04:00:45;8.95;;;2.70;;
42866;SDS011;39461;40.948;73.006;2023-05-13T04:03:18;10.60;;;2.72;;
42866;SDS011;39461;40.948;73.006;2023-05-13T04:05:53;7.82;;;2.97;;
42866;SDS011;39461;40.948;73.006;2023-05-13T04:08:29;8.43;;;2.80;;
42866;SDS011;39461;40.948;73.006;2023-05-13T04:11:02;3.88;;;2.15;;
42866;SDS011;39461;40.948;73.006;2023-05-13T04:13:37;8.23;;;2.50;;
42866;SDS011;39461;40.948;73.006;2023-05-13T04:16:13;7.07;;;1.90;;
42866;SDS011;39461;40.948;73.006;2023-05-13T04:18:50;4.95;;;2.08;;
42866;SDS011;39461;40.948;73.006;2023-05-13T04:21:22;5.57;;;2.25;;
42866;SDS011;39461;40.948;73.006;2023-05-13T04:26:54;5.80;;;2.35;;
42866;SDS011;39461;40.948;73.006;2023-05-13T04:29:27;8.85;;;2.92;;
42866;SDS011;39461;40.948;73.006;2023-05-13T04:32:00;8.15;;;3.30;;
42866;SDS011;39461;40.948;73.006;2023-05-13T04:34:33;9.18;;;3.05;;
42866;SDS011;39461;40.948;73.006;2023-05-13T04:37:06;5.75;;;2.47;;
42866;SDS011;39461;40.948;73.006;2023-05-13T04:39:44;7.75;;;2.25;;
42866;SDS011;39461;40.948;73.006;2023-05-13T04:42:11;5.65;;;2.15;;
42866;SDS011;39461;40.948;73.006;2023-05-13T04:44:44;10.88;;;4.68;;
42866;SDS011;39461;40.948;73.006;2023-05-13T04:47:19;4.93;;;1.83;;
42866;SDS011;39461;40.948;73.006;2023-05-13T04:49:54;5.70;;;2.20;;
42866;SDS011;39461;40.948;73.006;2023-05-13T04:52:27;8.15;;;1.85;;
42866;SDS011;39461;40.948;73.006;2023-05-13T04:55:00;5.30;;;1.88;;
42866;SDS011;39461;40.948;73.006;2023-05-13T04:57:33;6.50;;;1.73;;
42866;SDS011;39461;40.948;73.006;2023-05-13T05:00:09;5.63;;;2.10;;
42866;SDS011;39461;40.948;73.006;2023-05-13T05:02:42;3.58;;;1.90;;
42866;SDS011;39461;40.948;73.006;2023-05-13T05:05:19;10.02;;;2.20;;
42866;SDS011;39461;40.948;73.006;2023-05-13T05:07:54;4.55;;;1.80;;
42866;SDS011;39461;40.948;73.006;2023-05-13T05:10:29;5.55;;;2.30;;
42866;SDS011;39461;40.948;73.006;2023-05-13T05:13:04;3.63;;;1.70;;
42866;SDS011;39461;40.948;73.006;2023-05-13T05:15:41;8.68;;;1.80;;
42866;SDS011;39461;40.948;73.006;2023-05-13T05:18:17;6.32;;;2.13;;
42866;SDS011;39461;40.948;73.006;2023-05-13T05:20:50;4.88;;;1.80;;
42866;SDS011;39461;40.948;73.006;2023-05-13T05:23:25;3.85;;;1.75;;
42866;SDS011;39461;40.948;73.006;2023-05-13T05:26:00;5.15;;;1.67;;
42866;SDS011;39461;40.948;73.006;2023-05-13T05:28:34;5.15;;;2.10;;
42866;SDS011;39461;40.948;73.006;2023-05-13T05:31:11;5.57;;;1.85;;
42866;SDS011;39461;40.948;73.006;2023-05-13T05:33:46;6.72;;;2.28;;
42866;SDS011;39461;40.948;73.006;2023-05-13T05:36:19;3.30;;;1.70;;
42866;SDS011;39461;40.948;73.006;2023-05-13T05:38:53;4.18;;;1.73;;
42866;SDS011;39461;40.948;73.006;2023-05-13T05:41:28;5.82;;;1.83;;
42866;SDS011;39461;40.948;73.006;2023-05-13T05:44:03;7.30;;;2.20;;
42866;SDS011;39461;40.948;73.006;2023-05-13T05:46:30;3.63;;;1.58;;
42866;SDS011;39461;40.948;73.006;2023-05-13T05:49:04;3.83;;;1.70;;
42866;SDS011;39461;40.948;73.006;2023-05-13T05:51:39;5.07;;;1.95;;
42866;SDS011;39461;40.948;73.006;2023-05-13T05:54:12;7.88;;;1.80;;
42866;SDS011;39461;40.948;73.006;2023-05-13T05:56:45;5.18;;;1.55;;
42866;SDS011;39461;40.948;73.006;2023-05-13T05:59:21;4.43;;;1.63;;
42866;SDS011;39461;40.948;73.006;2023-05-13T06:01:54;6.65;;;1.95;;
42866;SDS011;39461;40.948;73.006;2023-05-13T06:04:27;2.85;;;1.65;;
42866;SDS011;39461;40.948;73.006;2023-05-13T06:07:02;5.85;;;1.85;;
42866;SDS011;39461;40.948;73.006;2023-05-13T06:09:38;4.43;;;1.27;;
42866;SDS011;39461;40.948;73.006;2023-05-13T06:12:11;7.68;;;2.00;;
42866;SDS011;39461;40.948;73.006;2023-05-13T06:14:46;7.80;;;4.00;;
42866;SDS011;39461;40.948;73.006;2023-05-13T06:17:21;5.65;;;2.28;;
42866;SDS011;39461;40.948;73.006;2023-05-13T06:19:57;6.20;;;1.65;;
42866;SDS011;39461;40.948;73.006;2023-05-13T06:22:33;17.40;;;3.92;;
42866;SDS011;39461;40.948;73.006;2023-05-13T06:25:08;19.90;;;2.30;;
42866;SDS011;39461;40.948;73.006;2023-05-13T06:27:41;8.05;;;2.30;;
42866;SDS011;39461;40.948;73.006;2023-05-13T06:30:17;29.38;;;10.07;;
42866;SDS011;39461;40.948;73.006;2023-05-13T06:32:50;13.02;;;6.00;;
42866;SDS011;39461;40.948;73.006;2023-05-13T06:35:27;4.82;;;2.30;;
42866;SDS011;39461;40.948;73.006;2023-05-13T06:38:02;8.40;;;2.25;;
42866;SDS011;39461;40.948;73.006;2023-05-13T06:40:40;6.30;;;2.78;;
42866;SDS011;39461;40.948;73.006;2023-05-13T06:43:09;15.23;;;7.38;;
42866;SDS011;39461;40.948;73.006;2023-05-13T06:45:47;39.25;;;31.45;;
42866;SDS011;39461;40.948;73.006;2023-05-13T06:48:20;11.75;;;2.88;;
42866;SDS011;39461;40.948;73.006;2023-05-13T06:50:55;5.97;;;2.22;;
42866;SDS011;39461;40.948;73.006;2023-05-13T06:53:28;7.78;;;2.10;;
42866;SDS011;39461;40.948;73.006;2023-05-13T06:56:02;6.55;;;2.80;;
42866;SDS011;39461;40.948;73.006;2023-05-13T06:58:39;8.75;;;2.85;;
42866;SDS011;39461;40.948;73.006;2023-05-13T07:01:12;4.78;;;2.05;;
42866;SDS011;39461;40.948;73.006;2023-05-13T07:03:46;7.43;;;2.80;;
42866;SDS011;39461;40.948;73.006;2023-05-13T07:06:19;6.75;;;2.47;;
42866;SDS011;39461;40.948;73.006;2023-05-13T07:08:52;7.97;;;2.50;;
42866;SDS011;39461;40.948;73.006;2023-05-13T07:11:29;9.48;;;3.67;;
42866;SDS011;39461;40.948;73.006;2023-05-13T07:14:05;5.78;;;2.10;;
42866;SDS011;39461;40.948;73.006;2023-05-13T07:16:40;6.22;;;2.38;;
42866;SDS011;39461;40.948;73.006;2023-05-13T07:19:13;7.78;;;1.90;;
42866;SDS011;39461;40.948;73.006;2023-05-13T07:21:46;8.38;;;2.03;;
42866;SDS011;39461;40.948;73.006;2023-05-13T07:24:21;8.23;;;2.30;;
42866;SDS011;39461;40.948;73.006;2023-05-13T07:26:54;6.72;;;2.20;;
42866;SDS011;39461;40.948;73.006;2023-05-13T07:29:30;4.93;;;2.38;;
42866;SDS011;39461;40.948;73.006;2023-05-13T07:32:05;6.53;;;2.42;;
42866;SDS011;39461;40.948;73.006;2023-05-13T07:34:40;7.97;;;2.22;;
42866;SDS011;39461;40.948;73.006;2023-05-13T07:37:15;6.68;;;2.22;;
42866;SDS011;39461;40.948;73.006;2023-05-13T07:39:53;11.85;;;3.45;;
42866;SDS011;39461;40.948;73.006;2023-05-13T07:42:26;23.08;;;14.77;;
42866;SDS011;39461;40.948;73.006;2023-05-13T07:45:06;8.50;;;2.58;;
42866;SDS011;39461;40.948;73.006;2023-05-13T07:47:41;11.80;;;2.80;;
42866;SDS011;39461;40.948;73.006;2023-05-13T07:50:16;12.40;;;4.35;;
42866;SDS011;39461;40.948;73.006;2023-05-13T07:52:49;12.57;;;4.05;;
42866;SDS011;39461;40.948;73.006;2023-05-13T07:55:24;8.38;;;3.10;;
42866;SDS011;39461;40.948;73.006;2023-05-13T07:57:57;9.48;;;2.50;;
42866;SDS011;39461;40.948;73.006;2023-05-13T08:00:36;9.95;;;2.15;;
42866;SDS011;39461;40.948;73.006;2023-05-13T08:03:14;10.93;;;2.63;;
42866;SDS011;39461;40.948;73.006;2023-05-13T08:05:52;8.15;;;2.30;;
42866;SDS011;39461;40.948;73.006;2023-05-13T08:08:25;8.82;;;2.63;;
42866;SDS011;39461;40.948;73.006;2023-05-13T08:11:00;10.93;;;2.63;;
42866;SDS011;39461;40.948;73.006;2023-05-13T08:13:35;10.20;;;2.90;;
42866;SDS011;39461;40.948;73.006;2023-05-13T08:16:09;10.27;;;3.13;;
42866;SDS011;39461;40.948;73.006;2023-05-13T08:18:42;9.63;;;2.60;;
42866;SDS011;39461;40.948;73.006;2023-05-13T08:21:17;51.42;;;7.70;;
42866;SDS011;39461;40.948;73.006;2023-05-13T08:23:52;8.00;;;2.70;;
42866;SDS011;39461;40.948;73.006;2023-05-13T08:26:27;10.85;;;2.80;;
42866;SDS011;39461;40.948;73.006;2023-05-13T08:29:02;8.82;;;2.90;;
42866;SDS011;39461;40.948;73.006;2023-05-13T08:31:35;14.35;;;2.72;;
42866;SDS011;39461;40.948;73.006;2023-05-13T08:34:10;10.30;;;2.42;;
42866;SDS011;39461;40.948;73.006;2023-05-13T08:36:48;12.07;;;2.85;;
42866;SDS011;39461;40.948;73.006;2023-05-13T08:39:20;12.80;;;3.33;;
42866;SDS011;39461;40.948;73.006;2023-05-13T08:41:49;9.50;;;3.17;;
42866;SDS011;39461;40.948;73.006;2023-05-13T08:44:19;10.10;;;2.40;;
42866;SDS011;39461;40.948;73.006;2023-05-13T08:47:03;11.18;;;3.75;;
42866;SDS011;39461;40.948;73.006;2023-05-13T08:52:39;8.02;;;2.55;;
42866;SDS011;39461;40.948;73.006;2023-05-13T08:55:12;18.60;;;3.25;;
42866;SDS011;39461;40.948;73.006;2023-05-13T08:57:48;16.35;;;3.63;;
42866;SDS011;39461;40.948;73.006;2023-05-13T09:00:23;18.95;;;2.97;;
42866;SDS011;39461;40.948;73.006;2023-05-13T09:05:54;9.80;;;2.70;;
42866;SDS011;39461;40.948;73.006;2023-05-13T09:08:27;12.18;;;2.40;;
42866;SDS011;39461;40.948;73.006;2023-05-13T09:11:03;10.48;;;2.72;;
42866;SDS011;39461;40.948;73.006;2023-05-13T09:13:36;14.90;;;3.20;;
42866;SDS011;39461;40.948;73.006;2023-05-13T09:16:11;3.63;;;2.00;;
42866;SDS011;39461;40.948;73.006;2023-05-13T09:18:46;10.07;;;2.63;;
42866;SDS011;39461;40.948;73.006;2023-05-13T09:21:20;18.05;;;12.85;;
42866;SDS011;39461;40.948;73.006;2023-05-13T09:24:10;16.13;;;4.60;;
42866;SDS011;39461;40.948;73.006;2023-05-13T09:26:51;26.23;;;16.67;;
42866;SDS011;39461;40.948;73.006;2023-05-13T09:29:26;16.70;;;6.45;;
42866;SDS011;39461;40.948;73.006;2023-05-13T09:32:00;10.82;;;2.25;;
42866;SDS011;39461;40.948;73.006;2023-05-13T09:34:37;10.38;;;3.35;;
42866;SDS011;39461;40.948;73.006;2023-05-13T09:37:14;7.35;;;1.98;;
42866;SDS011;39461;40.948;73.006;2023-05-13T09:39:55;7.68;;;2.05;;
42866;SDS011;39461;40.948;73.006;2023-05-13T09:42:28;9.43;;;2.42;;
42866;SDS011;39461;40.948;73.006;2023-05-13T09:45:03;20.90;;;3.33;;
42866;SDS011;39461;40.948;73.006;2023-05-13T09:47:38;25.73;;;13.45;;
42866;SDS011;39461;40.948;73.006;2023-05-13T09:50:11;17.70;;;4.20;;
42866;SDS011;39461;40.948;73.006;2023-05-13T09:52:46;12.50;;;3.00;;
42866;SDS011;39461;40.948;73.006;2023-05-13T09:55:19;10.13;;;2.65;;
42866;SDS011;39461;40.948;73.006;2023-05-13T09:57:54;13.75;;;3.10;;
42866;SDS011;39461;40.948;73.006;2023-05-13T10:00:27;8.57;;;2.70;;
42866;SDS011;39461;40.948;73.006;2023-05-13T10:03:02;9.75;;;2.20;;
42866;SDS011;39461;40.948;73.006;2023-05-13T10:05:38;9.60;;;2.58;;
42866;SDS011;39461;40.948;73.006;2023-05-13T10:08:12;19.35;;;2.72;;
42866;SDS011;39461;40.948;73.006;2023-05-13T10:10:48;9.80;;;2.75;;
42866;SDS011;39461;40.948;73.006;2023-05-13T10:13:24;9.48;;;2.50;;
42866;SDS011;39461;40.948;73.006;2023-05-13T10:16:01;10.23;;;2.40;;
42866;SDS011;39461;40.948;73.006;2023-05-13T10:18:35;13.32;;;2.85;;
42866;SDS011;39461;40.948;73.006;2023-05-13T10:21:08;19.20;;;4.00;;
42866;SDS011;39461;40.948;73.006;2023-05-13T10:23:48;12.02;;;2.55;;
42866;SDS011;39461;40.948;73.006;2023-05-13T10:26:19;7.13;;;2.38;;
42866;SDS011;39461;40.948;73.006;2023-05-13T10:28:55;5.85;;;2.28;;
42866;SDS011;39461;40.948;73.006;2023-05-13T10:31:31;12.75;;;2.75;;
42866;SDS011;39461;40.948;73.006;2023-05-13T10:34:06;11.15;;;3.53;;
42866;SDS011;39461;40.948;73.006;2023-05-13T10:44:34;14.52;;;2.90;;
42866;SDS011;39461;40.948;73.006;2023-05-13T10:47:08;8.88;;;2.80;;
42866;SDS011;39461;40.948;73.006;2023-05-13T10:49:48;15.27;;;3.15;;
42866;SDS011;39461;40.948;73.006;2023-05-13T10:52:27;14.05;;;4.18;;
42866;SDS011;39461;40.948;73.006;2023-05-13T10:55:18;15.27;;;3.00;;
42866;SDS011;39461;40.948;73.006;2023-05-13T10:58:12;10.45;;;2.88;;
42866;SDS011;39461;40.948;73.006;2023-05-13T11:00:45;13.70;;;3.53;;
42866;SDS011;39461;40.948;73.006;2023-05-13T11:06:00;13.40;;;3.35;;
42866;SDS011;39461;40.948;73.006;2023-05-13T11:08:42;11.60;;;4.10;;
42866;SDS011;39461;40.948;73.006;2023-05-13T11:16:33;16.10;;;3.33;;
42866;SDS011;39461;40.948;73.006;2023-05-13T11:19:17;8.80;;;3.03;;
42866;SDS011;39461;40.948;73.006;2023-05-13T11:21:53;18.85;;;4.00;;
42866;SDS011;39461;40.948;73.006;2023-05-13T11:24:27;15.57;;;3.72;;
42866;SDS011;39461;40.948;73.006;2023-05-13T11:27:14;10.15;;;3.05;;
42866;SDS011;39461;40.948;73.006;2023-05-13T11:29:50;13.60;;;3.50;;
42866;SDS011;39461;40.948;73.006;2023-05-13T11:35:21;14.38;;;3.38;;
42866;SDS011;39461;40.948;73.006;2023-05-13T11:37:57;13.35;;;3.60;;
42866;SDS011;39461;40.948;73.006;2023-05-13T11:40:36;11.80;;;3.85;;
42866;SDS011;39461;40.948;73.006;2023-05-13T11:43:10;12.60;;;3.05;;
42866;SDS011;39461;40.948;73.006;2023-05-13T11:45:43;15.70;;;10.00;;
42866;SDS011;39461;40.948;73.006;2023-05-13T11:48:22;12.23;;;2.97;;
42866;SDS011;39461;40.948;73.006;2023-05-13T11:50:57;11.68;;;3.58;;
42866;SDS011;39461;40.948;73.006;2023-05-13T11:53:32;15.07;;;3.03;;
42866;SDS011;39461;40.948;73.006;2023-05-13T11:56:10;11.90;;;3.08;;
42866;SDS011;39461;40.948;73.006;2023-05-13T11:58:43;17.17;;;3.83;;
42866;SDS011;39461;40.948;73.006;2023-05-13T12:01:18;15.80;;;3.80;;
42866;SDS011;39461;40.948;73.006;2023-05-13T12:03:59;15.80;;;3.72;;
42866;SDS011;39461;40.948;73.006;2023-05-13T12:06:33;13.18;;;3.70;;
42866;SDS011;39461;40.948;73.006;2023-05-13T12:09:10;14.82;;;3.78;;
42866;SDS011;39461;40.948;73.006;2023-05-13T12:11:44;11.73;;;3.70;;
42866;SDS011;39461;40.948;73.006;2023-05-13T12:14:18;14.30;;;3.25;;
42866;SDS011;39461;40.948;73.006;2023-05-13T12:16:52;13.15;;;3.55;;
42866;SDS011;39461;40.948;73.006;2023-05-13T12:22:27;11.25;;;3.20;;
42866;SDS011;39461;40.948;73.006;2023-05-13T12:27:56;8.85;;;2.83;;
42866;SDS011;39461;40.948;73.006;2023-05-13T12:30:33;11.57;;;2.95;;
42866;SDS011;39461;40.948;73.006;2023-05-13T12:36:18;10.60;;;3.25;;
42866;SDS011;39461;40.948;73.006;2023-05-13T12:38:59;12.60;;;3.67;;
42866;SDS011;39461;40.948;73.006;2023-05-13T12:41:36;9.85;;;3.45;;
42866;SDS011;39461;40.948;73.006;2023-05-13T12:46:51;10.05;;;3.10;;
42866;SDS011;39461;40.948;73.006;2023-05-13T12:49:25;9.18;;;3.00;;
42866;SDS011;39461;40.948;73.006;2023-05-13T12:52:03;13.38;;;3.00;;
42866;SDS011;39461;40.948;73.006;2023-05-13T12:54:39;12.18;;;2.78;;
42866;SDS011;39461;40.948;73.006;2023-05-13T12:57:14;11.65;;;3.33;;
42866;SDS011;39461;40.948;73.006;2023-05-13T12:59:50;9.40;;;3.03;;
42866;SDS011;39461;40.948;73.006;2023-05-13T13:02:25;11.85;;;3.88;;
42866;SDS011;39461;40.948;73.006;2023-05-13T13:05:00;14.02;;;3.65;;
42866;SDS011;39461;40.948;73.006;2023-05-13T13:07:34;15.40;;;4.10;;
42866;SDS011;39461;40.948;73.006;2023-05-13T13:10:08;12.77;;;3.33;;
42866;SDS011;39461;40.948;73.006;2023-05-13T13:12:44;10.55;;;3.65;;
42866;SDS011;39461;40.948;73.006;2023-05-13T13:15:17;20.35;;;3.97;;
42866;SDS011;39461;40.948;73.006;2023-05-13T13:17:51;18.38;;;3.65;;
42866;SDS011;39461;40.948;73.006;2023-05-13T13:20:24;13.65;;;3.50;;
42866;SDS011;39461;40.948;73.006;2023-05-13T13:22:57;19.42;;;3.97;;
42866;SDS011;39461;40.948;73.006;2023-05-13T13:25:31;19.85;;;5.78;;
42866;SDS011;39461;40.948;73.006;2023-05-13T13:28:04;14.20;;;5.43;;
42866;SDS011;39461;40.948;73.006;2023-05-13T13:30:37;24.27;;;7.10;;
42866;SDS011;39461;40.948;73.006;2023-05-13T13:33:17;23.27;;;6.68;;
42866;SDS011;39461;40.948;73.006;2023-05-13T13:35:51;28.98;;;7.18;;
42866;SDS011;39461;40.948;73.006;2023-05-13T13:38:24;18.33;;;5.80;;
42866;SDS011;39461;40.948;73.006;2023-05-13T13:40:57;19.50;;;6.68;;
42866;SDS011;39461;40.948;73.006;2023-05-13T13:43:32;16.05;;;6.55;;
42866;SDS011;39461;40.948;73.006;2023-05-13T13:46:05;21.10;;;7.45;;
42866;SDS011;39461;40.948;73.006;2023-05-13T13:48:38;23.58;;;6.13;;
42866;SDS011;39461;40.948;73.006;2023-05-13T13:51:11;27.42;;;8.07;;
42866;SDS011;39461;40.948;73.006;2023-05-13T13:53:45;22.23;;;6.03;;
42866;SDS011;39461;40.948;73.006;2023-05-13T13:56:22;21.35;;;6.50;;
42866;SDS011;39461;40.948;73.006;2023-05-13T13:58:55;21.55;;;6.82;;
42866;SDS011;39461;40.948;73.006;2023-05-13T14:01:31;20.95;;;6.38;;
42866;SDS011;39461;40.948;73.006;2023-05-13T14:04:15;18.33;;;6.68;;
42866;SDS011;39461;40.948;73.006;2023-05-13T14:06:50;24.35;;;7.38;;
42866;SDS011;39461;40.948;73.006;2023-05-13T14:09:26;26.13;;;7.45;;
42866;SDS011;39461;40.948;73.006;2023-05-13T14:12:02;21.50;;;7.32;;
42866;SDS011;39461;40.948;73.006;2023-05-13T14:14:40;24.45;;;7.78;;
42866;SDS011;39461;40.948;73.006;2023-05-13T14:17:15;20.77;;;6.68;;
42866;SDS011;39461;40.948;73.006;2023-05-13T14:19:50;23.65;;;7.63;;
42866;SDS011;39461;40.948;73.006;2023-05-13T14:22:27;15.15;;;7.03;;
42866;SDS011;39461;40.948;73.006;2023-05-13T14:25:03;18.65;;;7.38;;
42866;SDS011;39461;40.948;73.006;2023-05-13T14:27:38;39.67;;;17.90;;
42866;SDS011;39461;40.948;73.006;2023-05-13T14:30:13;39.53;;;23.85;;
42866;SDS011;39461;40.948;73.006;2023-05-13T14:32:48;44.75;;;23.35;;
42866;SDS011;39461;40.948;73.006;2023-05-13T14:35:23;40.38;;;19.50;;
42866;SDS011;39461;40.948;73.006;2023-05-13T14:37:54;28.33;;;15.50;;
42866;SDS011;39461;40.948;73.006;2023-05-13T14:40:27;22.95;;;9.23;;
42866;SDS011;39461;40.948;73.006;2023-05-13T14:43:01;16.10;;;6.75;;
42866;SDS011;39461;40.948;73.006;2023-05-13T14:45:34;16.58;;;6.00;;
42866;SDS011;39461;40.948;73.006;2023-05-13T14:48:07;14.65;;;5.20;;
42866;SDS011;39461;40.948;73.006;2023-05-13T14:50:42;18.98;;;5.43;;
42866;SDS011;39461;40.948;73.006;2023-05-13T14:53:16;19.30;;;5.97;;
42866;SDS011;39461;40.948;73.006;2023-05-13T14:55:49;18.55;;;6.57;;
42866;SDS011;39461;40.948;73.006;2023-05-13T14:58:26;22.90;;;7.60;;
42866;SDS011;39461;40.948;73.006;2023-05-13T15:00:53;15.82;;;7.05;;
42866;SDS011;39461;40.948;73.006;2023-05-13T15:03:20;41.53;;;21.27;;
42866;SDS011;39461;40.948;73.006;2023-05-13T15:05:55;30.92;;;15.32;;
42866;SDS011;39461;40.948;73.006;2023-05-13T15:08:31;32.88;;;14.68;;
42866;SDS011;39461;40.948;73.006;2023-05-13T15:11:06;34.20;;;12.85;;
42866;SDS011;39461;40.948;73.006;2023-05-13T15:13:41;35.40;;;11.27;;
42866;SDS011;39461;40.948;73.006;2023-05-13T15:16:16;31.63;;;10.65;;
42866;SDS011;39461;40.948;73.006;2023-05-13T15:18:51;35.22;;;11.18;;
42866;SDS011;39461;40.948;73.006;2023-05-13T15:21:26;46.28;;;12.20;;
42866;SDS011;39461;40.948;73.006;2023-05-13T15:24:01;39.67;;;13.13;;
42866;SDS011;39461;40.948;73.006;2023-05-13T15:26:37;29.02;;;11.30;;
42866;SDS011;39461;40.948;73.006;2023-05-13T15:29:12;36.40;;;16.98;;
42866;SDS011;39461;40.948;73.006;2023-05-13T15:31:49;29.88;;;17.83;;
42866;SDS011;39461;40.948;73.006;2023-05-13T15:34:24;30.30;;;13.27;;
42866;SDS011;39461;40.948;73.006;2023-05-13T15:37:00;22.90;;;10.48;;
42866;SDS011;39461;40.948;73.006;2023-05-13T15:39:35;22.23;;;9.85;;
42866;SDS011;39461;40.948;73.006;2023-05-13T15:42:11;26.00;;;8.93;;
42866;SDS011;39461;40.948;73.006;2023-05-13T15:44:47;24.42;;;8.40;;
42866;SDS011;39461;40.948;73.006;2023-05-13T15:47:22;26.98;;;9.13;;
42866;SDS011;39461;40.948;73.006;2023-05-13T15:49:56;25.83;;;8.50;;
42866;SDS011;39461;40.948;73.006;2023-05-13T15:52:36;18.33;;;7.40;;
42866;SDS011;39461;40.948;73.006;2023-05-13T15:55:11;20.10;;;7.45;;
42866;SDS011;39461;40.948;73.006;2023-05-13T15:57:44;22.70;;;7.13;;
42866;SDS011;39461;40.948;73.006;2023-05-13T16:00:18;24.83;;;8.00;;
42866;SDS011;39461;40.948;73.006;2023-05-13T16:02:48;20.45;;;8.57;;
42866;SDS011;39461;40.948;73.006;2023-05-13T16:05:24;20.88;;;7.90;;
42866;SDS011;39461;40.948;73.006;2023-05-13T16:08:00;20.83;;;9.68;;
42866;SDS011;39461;40.948;73.006;2023-05-13T16:10:35;24.85;;;9.38;;